Date,TemperatureHighF,TemperatureAvgF,TemperatureLowF,DewpointHighF,DewpointAvgF,DewpointLowF,HumidityHigh,HumidityAvg,HumidityLow,PressureMaxIn,PressureMinIn,WindSpeedMaxMPH,WindSpeedAvgMPH,GustSpeedMaxMPH,PrecipitationSumIn
2014-1-1,70,49,34,48,36,25,84,64,41,30.22,29.86,22,8,23,0.00
2014-1-2,44,32,24,25,20,17,78,61,38,30.50,30.22,21,9,27,0.00
2014-1-3,52,38,24,27,24,19,83,59,31,30.48,30.04,13,6,23,0.00
2014-1-4,70,54,39,52,44,26,91,71,48,30.03,29.72,15,9,25,0.00
2014-1-5,54,33,21,43,21,9,78,61,45,30.57,29.76,22,15,28,0.00
2014-1-6,34,23,14,10,6,4,69,50,30,30.79,30.57,14,6,20,0.00
2014-1-7,48,34,21,18,13,10,63,44,25,30.61,30.29,13,6,19,0.00
2014-1-8,49,43,38,48,38,18,95,84,40,30.29,30.10,11,7,17,0.11
2014-1-9,49,47,44,48,46,43,97,96,95,30.20,29.98,6,1,10,0.02
2014-1-10,70,59,48,62,54,38,100,84,55,29.98,29.65,11,4,16,0.05
2014-1-11,70,53,40,40,33,26,80,52,20,30.11,29.81,9,2,15,0.00
2014-1-12,73,57,42,56,40,28,83,55,24,30.04,29.77,20,9,28,0.00
2014-1-13,64,55,41,57,33,20,89,46,20,30.07,29.76,17,8,25,0.00
2014-1-14,66,49,32,36,26,19,73,42,21,30.36,30.00,18,6,23,0.00
2014-1-15,59,45,34,28,24,19,61,43,26,30.41,30.10,8,4,15,0.00
2014-1-16,64,50,34,36,28,17,80,46,24,30.21,30.00,14,4,16,0.00
2014-1-17,57,47,39,20,17,13,44,31,19,30.38,30.20,13,4,17,0.00
2014-1-18,70,52,35,34,27,18,59,39,24,30.20,30.03,12,4,21,0.00
2014-1-19,68,51,37,31,28,24,65,43,20,30.31,30.04,9,2,13,0.00
2014-1-20,76,57,43,42,33,26,64,42,23,30.22,29.82,13,6,16,0.00
2014-1-21,53,44,36,27,19,13,49,38,23,30.44,30.17,17,7,21,0.00
2014-1-22,64,47,31,30,25,17,70,44,25,30.17,30.01,11,3,13,0.00
2014-1-23,47,34,25,24,12,1,55,40,31,30.77,30.15,18,13,25,0.00
2014-1-24,45,30,19,14,6,1,50,36,20,30.78,30.27,11,5,14,0.00
2014-1-25,69,48,27,34,26,15,71,45,25,30.27,29.97,7,1,10,0.00
2014-1-26,78,60,48,41,36,30,61,43,21,29.97,29.61,9,4,18,0.00
2014-1-27,52,38,26,33,10,-2,56,33,19,30.35,29.76,20,13,31,0.00
2014-1-28,36,28,22,15,7,-1,67,42,28,30.53,30.34,13,7,21,0.00
2014-1-29,48,33,18,18,14,12,77,49,25,30.49,30.19,10,4,17,0.00
2014-1-30,60,44,30,46,31,15,86,60,49,30.19,29.82,19,11,30,0.00
2014-1-31,76,63,50,60,53,46,92,73,45,29.87,29.72,14,9,22,0.00
2014-2-1,65,52,42,60,43,31,87,72,60,30.01,29.72,15,8,29,0.00
2014-2-2,42,33,29,33,29,26,96,83,64,30.29,29.99,16,11,22,0.17
2014-2-3,45,36,30,36,31,26,88,81,67,30.30,30.01,9,3,12,0.00
2014-2-4,49,42,38,43,38,33,95,87,73,30.12,29.88,14,3,25,0.12
2014-2-5,38,29,22,33,20,14,83,70,59,30.56,30.13,17,12,22,0.00
2014-2-6,24,21,17,18,15,10,83,76,70,30.62,30.44,12,8,17,0.00
2014-2-7,33,28,23,27,22,17,85,77,68,30.45,30.25,7,2,9,0.00
2014-2-8,60,42,31,41,35,27,93,80,50,30.25,29.98,10,5,16,0.00
2014-2-9,48,42,37,44,40,35,95,91,81,30.14,30.01,12,3,14,0.00
2014-2-10,37,33,30,35,31,28,94,93,93,30.30,30.13,12,5,17,0.02
2014-2-11,34,31,28,29,27,24,94,86,78,30.36,30.25,13,6,19,0.03
2014-2-12,52,39,32,34,30,26,85,70,51,30.26,30.06,8,3,13,0.01
2014-2-13,69,48,30,42,36,27,91,65,33,30.07,29.85,10,3,14,0.00
2014-2-14,72,56,42,42,34,23,83,50,18,30.08,29.72,18,8,26,0.00
2014-2-15,71,54,36,38,32,28,75,47,24,30.14,29.97,12,4,17,0.00
2014-2-16,76,60,45,59,52,37,95,76,56,30.03,29.84,15,6,22,0.00
2014-2-17,75,64,51,59,40,24,93,49,17,30.13,29.82,17,6,24,0.00
2014-2-18,82,63,45,60,46,30,80,55,34,30.09,29.81,13,4,23,0.00
2014-2-19,69,65,60,62,60,57,95,87,78,29.88,29.61,15,6,20,0.00
2014-2-20,72,63,45,63,46,26,86,58,28,30.09,29.59,20,11,30,0.00
2014-2-21,68,52,34,33,27,22,76,41,19,30.17,29.98,11,4,20,0.00
2014-2-22,76,61,48,53,43,31,78,51,39,30.01,29.79,13,8,18,0.00
2014-2-23,73,60,50,61,50,39,95,72,44,30.11,29.83,13,6,18,0.00
2014-2-24,58,52,44,49,43,38,83,73,63,30.17,30.02,6,1,10,0.00
2014-2-25,54,49,41,49,43,31,96,81,58,30.15,30.01,13,6,19,0.18
2014-2-26,44,38,32,35,22,17,76,53,36,30.33,30.14,16,9,22,0.00
2014-2-27,58,42,26,32,25,19,82,53,30,30.19,29.85,11,3,16,0.00
2014-2-28,85,60,42,53,39,30,84,52,15,29.86,29.65,14,8,22,0.00
2014-3-1,81,65,48,66,56,45,94,74,43,29.95,29.79,15,5,20,0.00
2014-3-2,69,31,19,64,27,13,95,85,71,30.38,29.89,20,14,29,0.01
2014-3-3,36,25,16,20,15,9,78,67,50,30.52,30.33,19,10,26,0.01
2014-3-4,54,38,27,33,26,19,82,64,41,30.35,30.02,9,2,12,0.01
2014-3-5,56,44,33,39,34,30,92,70,46,30.18,29.97,12,2,14,0.00
2014-3-6,58,47,39,39,37,35,86,71,47,30.26,30.05,12,6,17,0.00
2014-3-7,67,52,37,47,40,34,91,68,39,30.04,29.82,15,8,22,0.00
2014-3-8,55,48,38,52,41,33,91,79,69,30.32,29.84,17,9,28,0.01
2014-3-9,66,49,37,44,38,32,84,68,44,30.36,30.18,13,5,16,0.00
2014-3-10,79,61,42,56,46,39,93,63,28,30.18,29.84,10,4,17,0.00
2014-3-11,87,68,56,59,54,38,93,66,24,29.84,29.47,18,8,27,0.00
2014-3-12,63,53,44,38,29,21,68,42,21,30.28,29.78,22,12,37,0.00
2014-3-13,70,55,36,33,27,23,61,37,20,30.32,30.05,11,4,15,0.00
2014-3-14,74,60,46,54,46,32,84,63,46,30.05,29.91,17,7,23,0.00
2014-3-15,66,61,53,63,58,52,95,90,75,29.96,29.65,14,4,18,0.65
2014-3-16,54,47,41,53,41,33,96,81,69,30.08,29.74,22,13,32,0.00
2014-3-17,65,49,36,34,30,25,75,52,24,30.07,29.71,13,5,17,0.00
2014-3-18,84,64,48,50,40,29,65,43,24,29.86,29.54,17,12,28,0.00
2014-3-19,67,56,45,38,34,30,62,44,27,30.20,29.87,15,8,21,0.00
2014-3-20,75,58,38,38,33,31,79,44,21,30.23,29.98,8,3,13,0.00
2014-3-21,81,66,53,60,50,34,77,57,42,29.98,29.77,16,8,23,0.00
2014-3-22,67,60,51,60,52,43,92,76,53,30.09,29.86,11,5,16,0.01
2014-3-23,60,52,47,47,35,28,82,53,40,30.36,30.08,18,9,22,0.00
2014-3-24,70,54,38,45,37,29,77,55,37,30.26,30.01,7,1,9,0.00
2014-3-25,67,53,42,40,30,22,74,45,22,30.39,30.14,11,5,14,0.00
2014-3-26,62,53,44,52,41,30,80,63,52,30.20,29.90,19,9,30,0.05
2014-3-27,83,68,58,67,61,52,95,81,55,29.90,29.62,15,10,23,0.04
2014-3-28,84,69,55,68,59,42,94,74,40,30.05,29.68,17,6,24,0.02
2014-3-29,76,60,45,45,39,32,80,51,21,30.29,30.05,10,5,16,0.00
2014-3-30,79,63,47,49,41,35,66,46,27,30.20,29.94,16,7,25,0.00
2014-3-31,82,68,56,61,56,47,87,66,46,29.94,29.79,14,10,25,0.00
2014-4-1,85,73,65,66,63,59,88,73,49,29.94,29.78,14,8,26,0.00
2014-4-2,83,74,70,70,67,65,90,79,59,29.81,29.64,15,8,23,0.00
2014-4-3,85,76,68,70,68,47,86,77,44,29.81,29.56,22,10,29,0.01
2014-4-4,69,57,45,47,36,33,69,47,29,30.17,29.82,20,8,26,0.00
2014-4-5,56,52,48,46,39,32,80,61,49,30.14,29.93,12,4,16,0.02
2014-4-6,53,50,46,51,46,42,94,89,71,29.95,29.75,11,5,15,0.43
2014-4-7,71,56,49,53,49,44,95,78,45,29.99,29.79,22,3,29,0.02
2014-4-8,72,60,50,48,40,32,84,52,25,30.16,29.99,21,9,31,0.00
2014-4-9,83,65,43,48,42,36,85,48,27,30.21,29.98,13,5,18,0.00
2014-4-10,86,72,58,58,54,48,84,55,34,29.98,29.80,19,11,25,0.00
2014-4-11,85,71,60,65,60,55,90,69,49,29.97,29.84,14,9,20,0.00
2014-4-12,84,74,65,64,62,60,83,68,48,29.89,29.70,17,12,27,0.00
2014-4-13,78,70,65,69,65,61,95,85,72,29.77,29.52,17,10,27,0.37
2014-4-14,73,50,43,68,39,31,86,66,47,30.26,29.65,20,13,27,0.00
2014-4-15,66,51,35,33,28,22,75,44,19,30.34,30.11,8,3,13,0.00
2014-4-16,70,56,41,47,39,32,72,55,35,30.11,29.91,16,8,25,0.00
2014-4-17,63,57,50,58,52,44,90,83,69,30.19,29.99,9,4,14,0.03
2014-4-18,81,65,51,55,52,49,94,68,36,30.22,30.08,7,1,12,0.00
2014-4-19,83,66,51,59,54,47,89,66,40,30.17,30.04,10,3,16,0.00
2014-4-20,78,68,61,62,58,53,94,72,44,30.10,30.00,11,4,18,0.63
2014-4-21,85,71,62,70,64,60,95,82,57,30.03,29.86,8,3,12,0.03
2014-4-22,86,73,61,64,60,54,94,69,35,30.04,29.87,9,2,13,0.00
2014-4-23,88,74,58,65,60,56,92,66,40,29.91,29.67,13,6,22,0.00
2014-4-24,84,74,65,67,57,45,88,59,28,29.91,29.69,15,8,20,0.00
2014-4-25,86,70,51,51,46,40,77,45,25,30.02,29.83,11,4,16,0.00
2014-4-26,84,73,62,70,62,47,89,70,49,29.84,29.58,15,9,23,0.00
2014-4-27,93,80,72,72,59,35,88,56,20,29.60,29.34,15,7,28,0.01
2014-4-28,82,72,62,47,39,31,47,30,21,29.66,29.46,10,3,15,0.00
2014-5-5,90,82,64,60,58,41,61,45,34,29.87,29.70,14,11,26,0.00
2014-5-6,88,78,64,66,63,59,86,60,46,29.76,29.63,16,11,30,0.00
2014-5-7,86,76,68,68,65,62,85,71,53,29.78,29.67,17,11,29,0.00
2014-5-8,80,70,64,75,67,61,95,89,74,29.86,29.66,11,4,22,1.31
2014-5-9,87,76,64,72,65,54,96,73,34,29.89,29.73,9,2,17,0.01
2014-5-10,88,76,62,71,65,60,92,72,53,29.88,29.71,13,7,24,0.00
2014-5-11,88,79,72,72,70,68,89,74,54,29.78,29.63,16,11,27,0.00
2014-5-12,83,71,59,75,67,56,95,88,73,30.03,29.66,21,8,25,1.22
2014-5-13,69,61,54,57,50,47,92,69,50,30.26,30.01,15,10,22,0.07
2014-5-14,74,62,51,52,45,38,93,61,29,30.27,30.14,16,7,25,0.10
2014-5-15,86,68,52,50,44,34,83,48,17,30.23,30.02,8,2,16,0.00
2014-5-16,86,72,55,55,50,44,81,48,26,30.09,29.84,12,4,18,0.00
2014-5-17,83,73,58,63,54,44,73,53,39,29.98,29.82,10,4,18,0.00
2014-5-18,85,73,63,64,61,55,90,67,45,30.04,29.92,13,7,23,0.00
2014-5-19,86,75,64,65,62,59,88,65,46,30.00,29.86,16,10,30,0.00
2014-5-20,87,77,68,66,64,61,85,65,45,29.99,29.90,14,10,29,0.00
2014-5-21,88,78,68,68,64,62,86,65,46,30.03,29.91,13,7,23,0.00
2014-5-22,89,77,67,70,66,62,90,70,49,30.07,29.92,12,5,17,0.00
2014-5-23,83,76,69,68,66,64,87,73,58,30.05,29.94,11,4,14,0.00
2014-5-24,87,77,70,70,68,65,85,72,55,30.02,29.91,11,4,17,0.00
2014-5-25,85,75,70,72,68,63,92,80,58,29.98,29.78,25,5,25,0.17
2014-5-26,81,74,68,70,67,62,93,78,54,30.01,29.88,13,3,16,0.03
2014-5-27,78,70,63,69,65,62,95,85,66,29.96,29.81,10,1,14,0.32
2014-5-28,85,75,65,67,64,62,94,72,48,29.92,29.81,8,2,13,0.00
2014-5-29,90,79,66,69,65,63,92,66,44,29.88,29.75,7,1,11,0.00
2014-5-30,90,79,70,70,67,65,89,69,45,29.86,29.76,7,2,13,0.00
2014-5-31,90,78,71,73,70,68,92,76,52,29.92,29.82,8,2,15,0.00
2014-6-1,92,80,70,74,70,67,94,73,48,29.93,29.78,10,4,19,0.00
2014-6-2,92,82,74,73,71,68,89,71,49,29.97,29.80,11,6,20,0.00
2014-6-3,91,82,74,75,72,70,91,73,53,29.98,29.83,10,5,17,0.00
2014-6-4,92,82,74,74,72,70,91,72,52,29.84,29.72,12,7,23,0.00
2014-6-5,90,81,73,75,72,70,92,76,58,29.82,29.72,12,6,21,0.00
2014-6-6,93,83,74,76,72,69,90,70,49,29.91,29.73,11,6,21,0.00
2014-6-7,95,84,74,74,71,69,89,67,45,29.90,29.78,10,5,19,0.00
2014-6-8,88,80,69,74,71,66,93,74,59,29.96,29.72,12,4,20,0.17
2014-6-9,81,73,63,73,66,61,95,80,58,29.82,29.69,13,4,26,0.82
2014-6-10,86,74,64,65,61,58,80,65,47,29.84,29.74,12,5,26,0.00
2014-6-11,94,79,62,70,65,60,93,65,38,29.88,29.70,10,4,20,0.00
2014-6-12,86,78,71,74,71,68,92,78,65,29.92,29.67,16,4,19,0.13
2014-6-13,93,82,73,73,71,69,90,71,51,29.97,29.83,7,2,13,0.00
2014-6-14,91,81,74,75,72,69,91,74,58,29.88,29.74,13,7,24,0.00
2014-6-15,92,83,75,74,72,70,88,71,52,29.89,29.74,15,9,27,0.00
2014-6-16,94,84,74,75,72,70,91,70,48,29.97,29.84,13,8,24,0.00
2014-6-17,94,84,76,74,72,69,89,68,47,29.95,29.83,12,9,29,0.00
2014-6-18,94,83,75,75,72,69,88,71,49,29.93,29.84,14,8,27,0.00
2014-6-19,94,84,74,76,72,69,90,70,47,30.00,29.90,11,7,19,0.00
2014-6-20,94,84,74,74,70,65,89,66,45,30.06,29.94,7,2,14,0.01
2014-6-21,88,81,75,74,72,70,89,74,61,30.00,29.86,6,2,12,0.00
2014-6-22,82,74,68,74,71,66,95,88,75,29.97,29.78,13,4,26,0.89
2014-6-23,89,77,67,73,70,65,95,81,55,29.94,29.78,19,2,40,0.39
2014-6-24,90,76,69,80,71,65,93,85,59,30.00,29.90,17,1,24,1.06
2014-6-25,88,76,69,77,71,67,95,87,68,30.02,29.90,16,2,17,0.14
2014-6-26,89,79,71,74,72,69,95,80,58,29.99,29.80,11,6,21,0.00
2014-6-27,91,81,72,76,72,69,90,76,55,29.87,29.72,14,9,27,0.00
2014-6-28,90,82,76,76,74,72,89,76,60,29.87,29.77,14,9,22,0.00
2014-6-29,94,85,78,76,74,73,87,71,54,29.96,29.85,13,8,29,0.00
2014-6-30,94,84,75,74,72,68,88,68,43,29.94,29.78,13,9,30,0.00
2014-7-1,93,83,73,74,72,70,92,71,50,29.95,29.79,10,5,20,0.00
2014-7-2,94,84,74,75,70,64,87,65,42,30.04,29.90,7,2,13,0.00
2014-7-3,89,80,72,72,69,65,84,69,55,30.15,30.01,11,3,17,0.04
2014-7-4,94,83,72,73,70,67,87,67,46,30.18,30.07,9,3,18,0.00
2014-7-5,94,83,73,75,72,69,93,71,47,30.14,30.00,9,3,18,0.00
2014-7-6,94,83,72,74,71,69,91,69,47,30.02,29.90,8,4,19,0.00
2014-7-7,98,86,74,76,70,65,88,63,38,29.95,29.84,10,5,18,0.00
2014-7-8,98,87,75,75,70,66,83,61,39,29.97,29.86,8,4,16,0.00
2014-7-9,98,86,75,74,68,63,78,57,34,30.00,29.87,8,3,14,0.00
2014-7-10,97,86,74,72,67,61,81,55,32,30.00,29.88,10,5,19,0.00
2014-7-11,96,85,72,71,67,61,82,57,33,30.08,29.98,10,4,21,0.00
2014-7-12,98,85,71,68,66,58,82,55,32,30.13,29.98,9,3,18,0.00
2014-7-13,100,88,75,74,69,66,79,56,34,30.05,29.91,7,2,14,0.00
2014-7-14,102,84,72,74,70,66,95,67,34,29.96,29.83,18,2,31,0.92
2014-7-15,93,82,74,74,64,51,96,61,29,30.02,29.91,10,4,20,0.00
2014-7-16,92,79,70,73,66,54,93,65,45,29.99,29.81,11,4,21,0.35
2014-7-17,77,73,69,74,71,68,95,91,81,29.92,29.83,8,3,15,0.25
2014-7-18,77,71,65,68,65,63,94,83,69,29.99,29.91,8,3,13,0.00
2014-7-19,80,72,68,68,65,64,89,79,62,30.02,29.94,4,0,11,0.01
2014-7-20,94,78,65,77,70,63,95,77,55,30.02,29.88,9,2,12,0.00
2014-7-21,98,85,75,80,74,72,92,73,45,30.01,29.89,8,3,14,0.00
2014-7-22,99,86,76,79,74,70,91,68,41,30.03,29.94,7,2,11,0.00
2014-7-23,97,85,73,74,71,67,92,65,40,30.07,29.94,9,1,21,0.00
2014-7-24,98,91,80,73,69,64,71,50,33,30.01,29.88,6,2,12,0.00
2014-7-25,100,87,72,75,70,67,89,61,36,29.97,29.84,8,3,17,0.00
2014-7-26,102,89,76,74,71,67,85,58,35,29.96,29.83,9,5,19,0.00
2014-7-27,104,90,78,73,70,66,81,55,29,29.99,29.90,8,4,13,0.00
2014-7-28,96,87,80,76,70,61,76,57,35,30.08,29.95,15,4,23,0.01
2014-7-29,84,78,73,71,65,60,79,63,51,30.12,30.00,6,0,10,0.02
2014-7-30,92,80,71,76,71,64,90,75,53,30.03,29.84,11,4,18,0.02
2014-7-31,82,76,71,73,69,66,87,79,67,30.00,29.86,13,6,23,0.00
2014-8-1,82,74,70,70,67,66,93,81,62,30.03,29.95,9,3,15,0.03
2014-8-2,91,78,67,70,67,64,94,71,46,30.08,29.97,8,2,12,0.00
2014-8-3,94,81,70,71,68,66,91,67,42,30.06,29.94,9,3,15,0.00
2014-8-4,96,83,72,74,69,65,90,65,37,30.04,29.92,8,2,15,0.00
2014-8-5,100,84,72,75,71,67,90,66,38,30.04,29.92,12,2,21,0.00
2014-8-6,102,88,77,74,70,66,85,59,34,29.98,29.83,11,5,19,0.00
2014-8-7,100,89,77,76,72,68,81,58,38,29.89,29.73,8,5,18,0.00
2014-8-8,105,92,80,75,71,68,79,54,32,29.89,29.77,11,5,19,0.00
2014-8-9,103,91,79,74,70,64,77,53,30,29.93,29.82,9,3,22,0.00
2014-8-10,102,88,78,79,71,67,81,59,35,29.97,29.86,9,2,14,0.06
2014-8-11,98,87,79,73,69,65,75,56,36,30.01,29.92,10,3,19,0.00
2014-8-12,95,85,77,70,63,58,77,51,30,30.04,29.94,12,4,20,0.00
2014-8-13,96,82,67,67,61,59,82,52,31,30.07,29.94,6,1,11,0.00
2014-8-14,97,83,68,67,64,61,80,55,34,30.04,29.89,9,3,16,0.00
2014-8-15,102,86,72,73,66,63,79,55,29,29.96,29.78,9,5,17,0.00
2014-8-16,101,84,77,75,72,68,86,70,36,29.89,29.79,12,4,18,0.09
2014-8-17,87,79,70,76,72,68,95,82,67,30.00,29.84,13,3,23,1.62
2014-8-18,90,81,74,77,74,69,90,78,65,29.94,29.80,6,1,13,0.00
2014-8-19,93,84,74,75,71,66,86,66,46,29.90,29.78,11,3,15,0.00
2014-8-20,98,86,78,75,72,67,83,64,39,29.92,29.82,13,7,21,0.00
2014-8-21,99,87,77,76,71,64,88,62,34,29.98,29.88,11,7,20,0.00
2014-8-22,101,88,78,76,70,62,87,58,29,30.00,29.87,10,6,20,0.00
2014-8-23,99,88,76,71,68,64,78,55,32,29.96,29.82,9,4,20,0.00
2014-8-24,100,88,76,74,70,66,78,57,35,29.91,29.79,10,4,14,0.00
2014-8-25,101,88,76,75,70,66,82,57,34,29.93,29.81,7,2,14,0.00
2014-8-26,100,87,76,76,71,66,84,60,36,29.99,29.87,8,2,15,0.00
2014-8-27,97,86,75,74,70,62,88,61,41,30.02,29.88,8,2,15,0.00
2014-8-28,98,84,72,73,68,61,84,59,35,29.94,29.77,10,3,16,0.00
2014-8-29,96,82,70,74,70,66,94,70,39,29.90,29.78,10,2,16,0.22
2014-8-30,96,84,74,77,72,70,90,70,45,29.93,29.81,7,2,13,0.00
2014-8-31,97,85,75,77,72,69,90,67,44,29.93,29.79,13,6,29,0.00
2014-9-1,98,86,76,76,72,69,88,66,43,29.87,29.77,12,9,24,0.00